createdAt,value
2022-10-19T00:01:40.273Z,100.00
2022-10-19T00:04:10.705Z,100.00
2022-10-19T00:06:40.907Z,100.00
2022-10-19T00:09:13.923Z,100.00
2022-10-19T00:11:47.478Z,99.88
2022-10-19T00:14:21.376Z,100.00
2022-10-19T00:16:53.142Z,100.00
2022-10-19T00:19:27.515Z,100.00
2022-10-19T00:21:57.723Z,100.00
2022-10-19T00:24:27.998Z,100.00
2022-10-19T00:30:39.038Z,100.00
2022-10-19T00:33:09.140Z,98.66
2022-10-19T00:35:42.252Z,96.51
2022-10-19T00:38:12.335Z,94.39
2022-10-19T00:40:42.573Z,93.19
2022-10-19T00:43:22.032Z,93.64
2022-10-19T00:45:52.710Z,94.51
2022-10-19T00:48:31.007Z,93.87
2022-10-19T00:51:01.875Z,93.59
2022-10-19T00:53:32.091Z,92.58
2022-10-19T00:56:07.914Z,91.95
2022-10-19T00:58:38.572Z,93.31
2022-10-19T01:01:11.473Z,94.49
2022-10-19T01:03:41.804Z,95.11
2022-10-19T01:06:18.089Z,94.96
2022-10-19T01:08:48.291Z,94.29
2022-10-19T01:11:42.966Z,93.64
2022-10-19T01:14:34.286Z,91.70
2022-10-19T01:17:19.372Z,92.86
2022-10-19T01:20:14.132Z,93.70
2022-10-19T01:23:05.137Z,91.81
2022-10-19T01:25:48.947Z,92.65
2022-10-19T01:28:46.356Z,92.43
2022-10-19T01:31:19.331Z,91.18
2022-10-19T01:34:10.011Z,92.34
2022-10-19T01:36:43.534Z,91.71
2022-10-19T01:39:38.644Z,93.16
2022-10-19T01:42:29.971Z,92.34
2022-10-19T01:45:14.782Z,92.45
2022-10-19T01:48:15.717Z,93.53
2022-10-19T01:51:00.616Z,90.99
2022-10-19T01:53:39.649Z,91.20
2022-10-19T01:56:11.586Z,90.70
2022-10-19T01:58:45.513Z,91.63
2022-10-19T02:01:19.659Z,92.32
2022-10-19T02:03:50.510Z,91.72
2022-10-19T02:06:21.159Z,91.04
2022-10-19T02:08:53.483Z,91.94
2022-10-19T02:11:24.375Z,92.72
2022-10-19T02:14:05.159Z,92.13
2022-10-19T02:16:42.457Z,90.64
2022-10-19T02:19:15.737Z,92.23
2022-10-19T02:21:46.146Z,94.48
2022-10-19T02:24:16.334Z,93.64
2022-10-19T02:26:46.604Z,94.93
2022-10-19T02:29:17.290Z,93.88
2022-10-19T02:31:47.586Z,93.36
2022-10-19T02:34:17.852Z,93.19
2022-10-19T02:36:48.059Z,93.63
2022-10-19T02:39:18.267Z,93.92
2022-10-19T02:41:56.266Z,94.71
2022-10-19T02:44:50.512Z,95.32
2022-10-19T02:47:26.349Z,94.09
2022-10-19T02:49:56.401Z,93.53
2022-10-19T02:52:26.580Z,93.62
2022-10-19T02:54:56.742Z,94.16
2022-10-19T02:57:26.856Z,94.27
2022-10-19T02:59:56.988Z,94.99
2022-10-19T03:02:27.239Z,94.88
2022-10-19T03:04:57.467Z,94.37
2022-10-19T03:07:27.628Z,94.03
2022-10-19T03:09:57.959Z,94.92
2022-10-19T03:12:28.421Z,95.14
2022-10-19T03:14:58.492Z,94.01
2022-10-19T03:17:28.673Z,94.22
2022-10-19T03:19:58.813Z,94.31
2022-10-19T03:22:28.868Z,93.92
2022-10-19T03:24:58.992Z,94.51
2022-10-19T03:27:29.119Z,94.43
2022-10-19T03:29:59.228Z,93.84
2022-10-19T03:32:29.352Z,94.17
2022-10-19T03:34:59.545Z,94.29
2022-10-19T03:37:29.818Z,94.79
2022-10-19T03:40:00.021Z,95.09
2022-10-19T03:42:30.177Z,94.13
2022-10-19T03:45:00.241Z,100.00
2022-10-19T03:47:30.629Z,100.00
2022-10-19T03:50:00.871Z,100.00
2022-10-19T03:52:30.952Z,100.00
2022-10-19T03:55:01.142Z,100.00
2022-10-19T03:57:31.430Z,100.00
2022-10-19T04:00:01.994Z,100.00
2022-10-19T04:02:32.149Z,100.00
2022-10-19T04:05:02.278Z,100.00
2022-10-19T04:07:32.609Z,100.00
2022-10-19T04:10:03.296Z,100.00
2022-10-19T04:12:33.611Z,100.00
2022-10-19T04:15:05.392Z,100.00
2022-10-19T04:17:35.784Z,100.00
2022-10-19T04:20:06.746Z,100.00
2022-10-19T04:22:36.963Z,100.00
2022-10-19T04:25:09.281Z,100.00
2022-10-19T04:27:39.358Z,100.00
2022-10-19T04:30:09.897Z,100.00
2022-10-19T04:32:40.010Z,100.00
2022-10-19T04:35:10.152Z,100.00
2022-10-19T04:37:40.275Z,100.00
2022-10-19T04:40:14.983Z,100.00
2022-10-19T04:42:45.489Z,100.00
2022-10-19T04:45:15.677Z,100.00
2022-10-19T04:47:45.751Z,100.00
2022-10-19T04:50:16.061Z,100.00
2022-10-19T04:52:46.230Z,100.00
2022-10-19T04:55:17.028Z,100.00
2022-10-19T04:57:47.261Z,100.00
2022-10-19T05:00:17.460Z,100.00
2022-10-19T05:02:48.241Z,100.00
2022-10-19T05:05:18.536Z,100.00
2022-10-19T05:07:49.289Z,100.00
2022-10-19T05:10:19.404Z,100.00
2022-10-19T05:12:49.444Z,99.99
2022-10-19T05:15:19.583Z,100.00
2022-10-19T05:17:49.613Z,98.08
2022-10-19T05:20:20.114Z,97.68
2022-10-19T05:22:50.863Z,96.71
2022-10-19T05:25:21.144Z,98.83
2022-10-19T05:27:52.815Z,98.44
2022-10-19T05:30:22.958Z,96.65
2022-10-19T05:32:53.107Z,96.60
2022-10-19T05:35:23.298Z,97.03
2022-10-19T05:37:58.522Z,96.38
2022-10-19T05:40:28.853Z,94.81
2022-10-19T05:42:59.007Z,94.16
2022-10-19T05:45:29.118Z,95.31
2022-10-19T05:47:59.363Z,94.13
2022-10-19T05:50:29.605Z,94.38
2022-10-19T05:52:59.813Z,94.54
2022-10-19T05:55:30.008Z,93.98
2022-10-19T05:58:00.260Z,93.01
2022-10-19T06:00:30.623Z,90.80
2022-10-19T06:03:00.742Z,92.09
2022-10-19T06:05:30.805Z,92.54
2022-10-19T06:08:00.937Z,91.51
2022-10-19T06:10:31.042Z,92.03
2022-10-19T06:13:01.174Z,90.55
2022-10-19T06:15:34.649Z,89.51
2022-10-19T06:18:05.254Z,89.61
2022-10-19T06:20:40.134Z,85.80
2022-10-19T06:23:10.388Z,85.95
2022-10-19T06:25:41.987Z,85.50
2022-10-19T06:28:12.308Z,84.68
2022-10-19T06:30:42.877Z,84.25
2022-10-19T06:33:12.991Z,82.82
2022-10-19T06:35:43.283Z,83.61
2022-10-19T06:38:14.034Z,84.13
2022-10-19T06:40:44.351Z,83.81
2022-10-19T06:43:14.728Z,81.82
2022-10-19T06:45:45.097Z,81.66
2022-10-19T06:48:15.229Z,81.81
2022-10-19T06:50:45.553Z,80.29
2022-10-19T06:53:15.645Z,80.12
2022-10-19T06:55:45.713Z,80.10
2022-10-19T06:58:15.883Z,80.44
2022-10-19T07:00:46.232Z,80.25
2022-10-19T07:03:17.848Z,78.95
2022-10-19T07:05:56.552Z,79.03
2022-10-19T07:08:28.718Z,79.10
2022-10-19T07:11:01.451Z,78.59
2022-10-19T07:13:31.692Z,78.36
2022-10-19T07:16:16.110Z,74.11
2022-10-19T07:18:52.347Z,76.43
2022-10-19T07:21:23.660Z,76.91
2022-10-19T07:23:53.799Z,76.91
2022-10-19T07:26:26.945Z,77.13
2022-10-19T07:28:57.630Z,77.79
2022-10-19T07:31:29.516Z,76.22
2022-10-19T07:34:02.137Z,76.34
2022-10-19T07:36:37.081Z,74.47
2022-10-19T07:39:07.939Z,75.26
2022-10-19T07:41:39.245Z,74.70
2022-10-19T07:44:10.965Z,75.53
2022-10-19T07:46:44.199Z,76.13
2022-10-19T07:49:20.159Z,75.35
2022-10-19T07:51:54.217Z,75.03
2022-10-19T07:54:24.742Z,74.82
2022-10-19T07:56:54.895Z,75.08
2022-10-19T07:59:24.928Z,75.66
2022-10-19T08:01:57.194Z,74.09
2022-10-19T08:07:17.509Z,72.48
2022-10-19T08:09:53.235Z,71.74
2022-10-19T08:12:23.919Z,71.84
2022-10-19T08:14:54.583Z,71.49
2022-10-19T08:17:24.707Z,71.42
2022-10-19T08:19:54.950Z,70.82
2022-10-19T08:22:24.990Z,71.71
2022-10-19T08:24:55.108Z,71.06
2022-10-19T08:27:25.665Z,71.70
2022-10-19T08:29:55.775Z,71.51
2022-10-19T08:32:25.878Z,71.98
2022-10-19T08:34:56.017Z,71.32
2022-10-19T08:37:40.687Z,74.67
2022-10-19T08:40:21.343Z,75.88
2022-10-19T08:43:05.514Z,75.22
2022-10-19T08:45:59.488Z,82.84
2022-10-19T08:48:33.284Z,81.62
2022-10-19T08:51:05.750Z,81.43
2022-10-19T08:54:05.003Z,81.87
2022-10-19T08:56:55.832Z,80.99
2022-10-19T08:59:45.680Z,81.44
2022-10-19T09:02:29.118Z,80.40
2022-10-19T09:05:08.271Z,77.62
2022-10-19T09:07:45.651Z,77.86
2022-10-19T09:10:19.619Z,77.71
2022-10-19T09:12:49.687Z,76.08
2022-10-19T09:15:26.330Z,75.60
2022-10-19T09:17:56.477Z,80.33
2022-10-19T09:20:33.752Z,83.50
2022-10-19T09:23:13.441Z,86.24
2022-10-19T09:25:43.812Z,86.46
2022-10-19T09:29:02.540Z,89.18
2022-10-19T09:31:40.479Z,88.95
2022-10-19T09:34:16.971Z,87.72
2022-10-19T09:36:53.145Z,85.07
2022-10-19T09:39:27.069Z,85.38
2022-10-19T09:42:02.825Z,83.39
2022-10-19T09:44:33.103Z,84.67
2022-10-19T09:47:13.924Z,82.78
2022-10-19T09:49:47.242Z,91.35
2022-10-19T09:52:29.568Z,96.22
2022-10-19T09:55:13.345Z,100.00
2022-10-19T09:58:04.647Z,100.00
2022-10-19T10:00:42.866Z,100.00
2022-10-19T10:03:23.535Z,100.00
2022-10-19T10:05:55.878Z,92.36
2022-10-19T10:08:30.363Z,90.93
2022-10-19T10:11:08.315Z,91.55
2022-10-19T10:13:41.772Z,91.92
2022-10-19T10:16:16.028Z,89.02
2022-10-19T10:19:00.883Z,87.20
2022-10-19T10:21:36.539Z,86.66
2022-10-19T10:24:12.708Z,87.07
2022-10-19T10:26:48.561Z,85.36
2022-10-19T10:29:22.910Z,85.73
2022-10-19T10:32:02.066Z,83.72
2022-10-19T10:34:51.026Z,80.95
2022-10-19T10:37:46.601Z,74.00
2022-10-19T10:40:28.808Z,74.98
2022-10-19T10:43:06.823Z,75.86
2022-10-19T10:45:46.742Z,75.72
2022-10-19T10:48:38.758Z,77.51
2022-10-19T10:51:20.971Z,74.72
2022-10-19T10:53:51.922Z,77.86
2022-10-19T10:56:27.640Z,77.99
2022-10-19T10:59:07.733Z,77.23
2022-10-19T11:01:46.461Z,76.94
2022-10-19T11:04:24.219Z,76.28
2022-10-19T11:07:08.596Z,76.37
2022-10-19T11:09:44.270Z,75.65
2022-10-19T11:12:19.765Z,76.87
2022-10-19T11:14:57.322Z,78.52
2022-10-19T11:17:34.036Z,77.83
2022-10-19T11:20:06.329Z,72.52
2022-10-19T11:22:57.689Z,75.68
2022-10-19T11:25:58.364Z,73.82
2022-10-19T11:29:18.966Z,73.52
2022-10-19T11:31:56.889Z,77.90
2022-10-19T11:34:48.059Z,77.03
2022-10-19T11:37:25.066Z,75.11
2022-10-19T11:40:12.036Z,73.81
2022-10-19T11:42:56.360Z,74.03
2022-10-19T11:45:55.588Z,73.86
2022-10-19T11:48:35.830Z,75.63
2022-10-19T11:51:30.105Z,73.88
2022-10-19T11:54:32.817Z,76.10
2022-10-19T11:57:10.539Z,77.30
2022-10-19T12:00:14.078Z,77.80
2022-10-19T12:03:12.997Z,74.96
2022-10-19T12:06:04.469Z,74.85
2022-10-19T12:08:40.267Z,75.49
2022-10-19T12:11:21.491Z,74.93
2022-10-19T12:13:56.438Z,74.77
2022-10-19T12:16:37.392Z,73.26
2022-10-19T12:19:17.732Z,71.82
2022-10-19T12:21:48.874Z,75.16
2022-10-19T12:24:25.931Z,72.54
2022-10-19T12:26:57.278Z,74.83
2022-10-19T12:29:32.614Z,73.50
2022-10-19T12:32:05.033Z,72.98
2022-10-19T12:35:01.120Z,66.71
2022-10-19T12:38:10.847Z,63.38
2022-10-19T12:40:51.703Z,66.40
2022-10-19T12:43:38.965Z,68.17
2022-10-19T12:46:27.552Z,66.42
2022-10-19T12:49:31.479Z,66.21
2022-10-19T12:52:02.707Z,71.20
2022-10-19T12:54:36.236Z,70.11
2022-10-19T12:57:28.050Z,67.54
2022-10-19T13:00:00.974Z,68.69
2022-10-19T13:02:35.883Z,68.89
2022-10-19T13:05:07.413Z,69.62
2022-10-19T13:07:38.187Z,69.53
2022-10-19T13:10:20.890Z,63.08
2022-10-19T13:12:52.166Z,68.91
2022-10-19T13:15:34.710Z,64.96
2022-10-19T13:18:17.099Z,63.14
2022-10-19T13:20:54.085Z,65.77
2022-10-19T13:23:27.222Z,66.41
2022-10-19T13:26:45.496Z,64.10
2022-10-19T13:29:25.902Z,65.13
2022-10-19T13:32:16.012Z,69.09
2022-10-19T13:34:46.999Z,68.63
2022-10-19T13:37:19.277Z,66.30
2022-10-19T13:39:50.043Z,68.95
2022-10-19T13:42:28.325Z,63.60
2022-10-19T13:44:58.580Z,68.60
2022-10-19T13:50:22.753Z,71.82
2022-10-19T13:53:08.046Z,72.66
2022-10-19T13:55:49.238Z,72.51
2022-10-19T13:58:36.579Z,72.65
2022-10-19T14:01:45.792Z,70.81
2022-10-19T14:04:42.465Z,69.40
2022-10-19T14:07:39.012Z,66.48
2022-10-19T14:10:33.112Z,67.28
2022-10-19T14:13:15.486Z,70.45
2022-10-19T14:15:55.212Z,67.24
2022-10-19T14:18:28.972Z,70.22
2022-10-19T14:21:05.188Z,68.22
2022-10-19T14:23:39.937Z,68.97
2022-10-19T14:26:20.708Z,66.47
2022-10-19T14:28:57.377Z,65.79
2022-10-19T14:31:37.420Z,65.29
2022-10-19T14:34:09.433Z,67.66
2022-10-19T14:36:45.207Z,64.80
2022-10-19T14:39:30.906Z,63.12
2022-10-19T14:42:06.116Z,65.95
2022-10-19T14:44:42.765Z,65.04
2022-10-19T14:47:20.655Z,57.13
2022-10-19T14:49:51.144Z,67.55
2022-10-19T14:52:31.663Z,63.23
2022-10-19T14:55:11.589Z,65.37
2022-10-19T14:57:47.719Z,66.31
2022-10-19T15:00:21.423Z,66.16
2022-10-19T15:02:54.326Z,66.54
2022-10-19T15:05:28.490Z,65.67
2022-10-19T15:08:10.331Z,62.93
2022-10-19T15:10:46.708Z,65.68
2022-10-19T15:13:47.591Z,60.10
2022-10-19T15:16:49.858Z,60.91
2022-10-19T15:19:32.017Z,63.04
2022-10-19T15:22:21.978Z,63.44
2022-10-19T15:25:08.703Z,62.35
2022-10-19T15:27:46.327Z,66.81
2022-10-19T15:30:19.728Z,66.27
2022-10-19T15:33:02.215Z,66.48
2022-10-19T15:35:38.902Z,66.38
2022-10-19T15:38:19.852Z,66.89
2022-10-19T15:40:58.172Z,65.58
2022-10-19T15:43:34.037Z,66.05
2022-10-19T15:46:13.744Z,63.82
2022-10-19T15:48:51.120Z,65.57
2022-10-19T15:51:24.455Z,66.46
2022-10-19T15:53:58.491Z,66.02
2022-10-19T15:56:31.990Z,65.13
2022-10-19T15:59:05.776Z,65.20
2022-10-19T16:01:36.498Z,66.19
2022-10-19T16:04:07.711Z,65.58
2022-10-19T16:06:42.035Z,65.10
2022-10-19T16:09:20.471Z,64.39
2022-10-19T16:11:56.781Z,66.00
2022-10-19T16:14:30.850Z,65.14
2022-10-19T16:17:05.954Z,65.25
2022-10-19T16:19:36.186Z,64.93
2022-10-19T16:22:06.596Z,65.15
2022-10-19T16:24:37.020Z,64.95
2022-10-19T16:27:08.001Z,65.34
2022-10-19T16:29:38.168Z,64.83
2022-10-19T16:32:09.382Z,64.59
2022-10-19T16:34:39.538Z,64.42
2022-10-19T16:37:09.605Z,64.28
2022-10-19T16:39:39.910Z,64.08
2022-10-19T16:42:10.054Z,64.28
2022-10-19T16:44:40.167Z,63.98
2022-10-19T16:47:14.013Z,64.81
2022-10-19T16:49:44.202Z,64.65
2022-10-19T16:52:17.251Z,63.25
2022-10-19T16:54:47.425Z,64.35
2022-10-19T16:57:17.820Z,64.02
2022-10-19T17:02:24.074Z,64.40
2022-10-19T17:04:54.468Z,64.53
2022-10-19T17:07:24.788Z,64.40
2022-10-19T17:09:55.122Z,64.30
2022-10-19T17:12:25.552Z,64.30
2022-10-19T17:15:00.498Z,64.16
2022-10-19T17:17:44.663Z,64.18
2022-10-19T17:20:15.883Z,64.47
2022-10-19T17:22:46.306Z,64.07
2022-10-19T17:25:16.558Z,64.35
2022-10-19T17:27:51.114Z,62.30
2022-10-19T17:30:21.234Z,63.96
2022-10-19T17:32:51.425Z,63.11
2022-10-19T17:35:21.645Z,62.89
2022-10-19T17:37:53.173Z,62.90
2022-10-19T17:40:23.526Z,63.00
2022-10-19T17:42:53.819Z,62.79
2022-10-19T17:45:27.458Z,63.16
2022-10-19T17:47:57.750Z,62.91
2022-10-19T17:50:27.894Z,63.46
2022-10-19T17:52:58.975Z,63.39
2022-10-19T17:55:29.177Z,63.26
2022-10-19T17:58:02.298Z,62.60
2022-10-19T18:00:34.809Z,62.73
2022-10-19T18:03:05.026Z,62.31
2022-10-19T18:05:35.308Z,62.34
2022-10-19T18:08:05.500Z,62.43
2022-10-19T18:10:37.236Z,62.16
2022-10-19T18:13:07.540Z,62.85
2022-10-19T18:15:37.641Z,62.39
2022-10-19T18:18:07.729Z,62.48
2022-10-19T18:20:40.262Z,62.59
2022-10-19T18:23:10.424Z,62.30
2022-10-19T18:25:53.600Z,62.51
2022-10-19T18:28:24.282Z,62.12
2022-10-19T18:30:54.477Z,62.15
2022-10-19T18:33:29.050Z,61.77
2022-10-19T18:36:01.953Z,61.98
2022-10-19T18:38:32.294Z,61.77
2022-10-19T18:41:08.651Z,60.39
2022-10-19T18:43:40.189Z,62.31
2022-10-19T18:46:10.753Z,62.15
2022-10-19T18:48:40.887Z,62.38
2022-10-19T18:51:11.250Z,62.36
2022-10-19T18:53:42.148Z,62.79
2022-10-19T18:56:15.113Z,63.12
2022-10-19T18:58:45.494Z,63.21
2022-10-19T19:01:19.696Z,63.11
2022-10-19T19:03:52.495Z,63.38
2022-10-19T19:06:26.730Z,63.51
2022-10-19T19:08:58.662Z,63.50
2022-10-19T19:11:34.444Z,63.50
2022-10-19T19:14:13.759Z,63.44
2022-10-19T19:16:45.678Z,63.52
2022-10-19T19:19:17.790Z,63.69
2022-10-19T19:21:51.490Z,63.68
2022-10-19T19:24:22.648Z,63.88
2022-10-19T19:26:57.251Z,64.06
2022-10-19T19:29:28.089Z,63.67
2022-10-19T19:32:01.107Z,63.54
2022-10-19T19:34:31.473Z,63.88
2022-10-19T19:37:01.855Z,63.46
2022-10-19T19:39:33.032Z,63.43
2022-10-19T19:42:03.382Z,63.32
2022-10-19T19:44:33.562Z,63.38
2022-10-19T19:47:03.831Z,63.27
2022-10-19T19:49:36.518Z,63.78
2022-10-19T19:52:06.973Z,63.46
2022-10-19T19:54:37.088Z,62.96
2022-10-19T19:57:08.108Z,62.96
2022-10-19T19:59:38.549Z,63.13
2022-10-19T20:02:10.721Z,63.14
2022-10-19T20:04:40.838Z,63.10
2022-10-19T20:07:13.267Z,62.78
2022-10-19T20:09:45.627Z,63.08
2022-10-19T20:12:17.242Z,63.19
2022-10-19T20:14:47.442Z,63.18
2022-10-19T20:17:23.631Z,63.23
2022-10-19T20:19:53.832Z,63.42
2022-10-19T20:22:26.205Z,63.22
2022-10-19T20:24:56.510Z,63.35
2022-10-19T20:27:26.757Z,63.50
2022-10-19T20:29:59.877Z,63.83
2022-10-19T20:32:30.104Z,63.88
2022-10-19T20:35:00.277Z,63.92
2022-10-19T20:37:31.449Z,63.85
2022-10-19T20:40:07.445Z,63.77
2022-10-19T20:42:38.868Z,63.73
2022-10-19T20:45:09.548Z,64.06
2022-10-19T20:47:42.120Z,64.02
2022-10-19T20:50:12.230Z,63.92
2022-10-19T20:52:42.574Z,64.40
2022-10-19T20:55:12.677Z,64.70
2022-10-19T20:57:42.804Z,64.71
2022-10-19T21:00:13.637Z,65.03
2022-10-19T21:02:46.826Z,65.02
2022-10-19T21:05:17.107Z,64.91
2022-10-19T21:07:47.214Z,65.07
2022-10-19T21:10:17.304Z,64.87
2022-10-19T21:12:47.479Z,65.20
2022-10-19T21:15:17.619Z,64.99
2022-10-19T21:17:48.166Z,64.89
2022-10-19T21:20:18.396Z,64.87
2022-10-19T21:22:48.533Z,65.32
2022-10-19T21:25:18.704Z,65.24
2022-10-19T21:27:52.012Z,65.15
2022-10-19T21:30:22.243Z,65.83
2022-10-19T21:32:52.438Z,65.49
2022-10-19T21:35:22.576Z,65.85
2022-10-19T21:37:52.637Z,65.94
2022-10-19T21:40:22.733Z,65.86
2022-10-19T21:42:52.870Z,66.00
2022-10-19T21:45:30.391Z,65.94
2022-10-19T21:48:00.889Z,65.95
2022-10-19T21:50:31.101Z,66.38
2022-10-19T21:53:01.298Z,66.49
2022-10-19T21:55:34.096Z,66.45
2022-10-19T21:58:05.240Z,66.75
2022-10-19T22:00:36.434Z,67.07
2022-10-19T22:03:06.695Z,66.98
2022-10-19T22:05:36.982Z,66.69
2022-10-19T22:08:07.076Z,66.77
2022-10-19T22:10:38.071Z,67.23
2022-10-19T22:13:08.237Z,66.82
2022-10-19T22:15:39.410Z,67.12
2022-10-19T22:18:09.893Z,67.34
2022-10-19T22:20:40.754Z,67.13
2022-10-19T22:23:10.892Z,67.14
2022-10-19T22:25:40.972Z,67.38
2022-10-19T22:28:11.020Z,67.49
2022-10-19T22:30:45.186Z,67.16
2022-10-19T22:33:15.846Z,67.46
2022-10-19T22:36:02.536Z,67.20
2022-10-19T22:38:33.103Z,66.37
2022-10-19T22:41:03.561Z,67.28
2022-10-19T22:43:33.629Z,67.24
2022-10-19T22:46:03.983Z,67.29
2022-10-19T22:48:34.446Z,67.49
2022-10-19T22:51:04.603Z,67.45
2022-10-19T22:53:34.655Z,67.78
2022-10-19T22:56:05.300Z,67.90
2022-10-19T22:58:35.384Z,67.56
2022-10-19T23:01:08.338Z,67.46
2022-10-19T23:03:40.506Z,67.71
2022-10-19T23:06:13.704Z,67.65
2022-10-19T23:08:44.940Z,67.44
2022-10-19T23:11:16.026Z,67.52
2022-10-19T23:13:46.128Z,67.25
2022-10-19T23:16:16.332Z,67.48
2022-10-19T23:18:46.471Z,67.53
2022-10-19T23:21:16.579Z,67.26
2022-10-19T23:23:46.811Z,66.91
2022-10-19T23:26:19.083Z,66.87
2022-10-19T23:28:50.815Z,67.21
2022-10-19T23:31:26.682Z,67.25
2022-10-19T23:33:57.167Z,66.99
2022-10-19T23:36:28.934Z,66.83
2022-10-19T23:38:59.235Z,67.34
2022-10-19T23:41:29.247Z,67.55
2022-10-19T23:43:59.405Z,68.06
2022-10-19T23:46:29.497Z,67.61
2022-10-19T23:48:59.766Z,67.27
2022-10-19T23:51:29.860Z,66.79
2022-10-19T23:54:00.052Z,67.16
2022-10-19T23:56:30.143Z,66.85
2022-10-19T23:59:00.233Z,67.03
